createdAt,value
2019-04-27T07:02:19.056Z,99894.70
2019-04-27T07:07:24.479Z,99917.70
2019-04-27T07:12:29.072Z,99937.91
2019-04-27T07:17:33.535Z,99937.67
2019-04-27T07:22:39.554Z,99939.81
2019-04-27T07:27:43.536Z,99928.91
2019-04-27T07:32:48.826Z,99941.25
2019-04-27T07:37:53.141Z,99940.47
2019-04-27T07:42:57.258Z,99958.27
2019-04-27T07:48:03.334Z,99985.04
2019-04-27T07:53:08.653Z,99988.91
2019-04-27T07:58:13.183Z,99993.63
2019-04-27T08:03:17.188Z,99996.80
2019-04-27T08:08:21.364Z,99999.69
2019-04-27T08:13:25.432Z,100002.11
2019-04-27T08:18:29.925Z,100017.41
2019-04-27T08:23:34.121Z,100013.59
2019-04-27T08:28:38.672Z,100025.90
2019-04-27T08:33:44.825Z,100023.91
2019-04-27T08:38:49.074Z,100024.73
2019-04-27T08:43:53.311Z,100036.31
2019-04-27T08:48:58.693Z,100044.94
2019-04-27T08:54:03.069Z,100041.56
2019-04-27T08:59:07.250Z,100060.73
2019-04-27T09:04:11.658Z,100041.97
2019-04-27T09:09:15.790Z,100054.13
2019-04-27T09:14:19.882Z,100073.01
2019-04-27T09:19:28.720Z,100082.41
2019-04-27T09:24:33.031Z,100102.58
2019-04-27T09:29:37.294Z,100094.37
2019-04-27T09:34:41.425Z,100096.34
2019-04-27T09:39:46.069Z,100094.32
2019-04-27T09:44:50.563Z,100093.41
2019-04-27T09:49:56.418Z,100094.16
2019-04-27T09:55:00.678Z,100086.82
2019-04-27T10:00:07.597Z,100086.82
2019-04-27T10:05:11.843Z,100103.81
2019-04-27T10:10:16.200Z,100098.50
2019-04-27T10:15:20.610Z,100110.46
2019-04-27T10:20:24.736Z,100112.45
2019-04-27T10:25:28.791Z,100129.73
2019-04-27T10:30:33.149Z,100138.39
2019-04-27T10:35:37.658Z,100149.59
2019-04-27T10:40:41.656Z,100148.37
2019-04-27T10:45:46.280Z,100148.37
2019-04-27T10:50:50.608Z,100128.20
2019-04-27T10:55:56.468Z,100154.38
2019-04-27T11:01:00.871Z,100146.77
2019-04-27T11:06:05.916Z,100150.88
2019-04-27T11:11:11.081Z,100157.75
2019-04-27T11:16:20.353Z,100170.13
2019-04-27T11:21:27.471Z,100171.48
2019-04-27T11:26:31.587Z,100161.81
2019-04-27T11:31:36.343Z,100178.34
2019-04-27T11:36:40.888Z,100178.84
2019-04-27T11:41:44.987Z,100182.49
2019-04-27T11:46:49.135Z,100183.84
2019-04-27T11:51:53.451Z,100200.69
2019-04-27T11:56:57.960Z,100197.48
2019-04-27T12:02:02.085Z,100196.28
2019-04-27T12:07:06.579Z,100200.53
2019-04-27T12:12:15.973Z,100211.95
2019-04-27T12:17:17.530Z,100222.09
2019-04-27T12:22:21.697Z,100222.09
2019-04-27T12:27:26.151Z,100228.31
2019-04-27T12:32:30.513Z,100235.64
2019-04-27T12:37:35.719Z,100222.91
2019-04-27T12:42:40.314Z,100232.78
2019-04-27T12:47:46.411Z,100229.25
2019-04-27T12:52:51.326Z,100244.59
2019-04-27T12:57:55.617Z,100252.23
2019-04-27T13:02:59.785Z,100239.22
2019-04-27T13:08:03.970Z,100242.89
2019-04-27T13:13:09.185Z,100252.90
2019-04-27T13:18:16.572Z,100254.52
2019-04-27T13:23:20.955Z,100251.31
2019-04-27T13:28:25.752Z,100252.88
2019-04-27T13:33:30.356Z,100252.88
2019-04-27T13:38:36.347Z,100258.53
2019-04-27T13:43:41.229Z,100247.39
2019-04-27T13:48:46.678Z,100261.37
2019-04-27T13:53:52.427Z,100264.94
2019-04-27T13:58:58.354Z,100266.93
2019-04-27T14:04:02.924Z,100267.07
2019-04-27T14:09:09.278Z,100282.94
2019-04-27T14:14:13.760Z,100276.06
2019-04-27T14:19:18.902Z,100275.43
2019-04-27T14:24:29.848Z,100282.72
2019-04-27T14:29:29.826Z,100282.70
2019-04-27T14:34:33.984Z,100284.92
2019-04-27T14:39:39.025Z,100273.48
2019-04-27T14:44:43.323Z,100285.28
2019-04-27T14:49:49.115Z,100286.92
2019-04-27T14:54:53.436Z,100295.23
2019-04-27T15:00:00.294Z,100293.77
2019-04-27T15:05:05.061Z,100300.06
2019-04-27T15:10:09.266Z,100309.57
2019-04-27T15:15:14.444Z,100318.27
2019-04-27T15:20:22.597Z,100253.87
2019-04-27T15:25:24.717Z,100325.08
2019-04-27T15:30:28.910Z,100325.31
2019-04-27T15:35:35.522Z,100325.31
2019-04-27T15:40:43.786Z,100331.83
2019-04-27T15:45:45.236Z,100331.96
2019-04-27T15:50:52.106Z,100311.63
2019-04-27T15:56:00.124Z,100329.66
2019-04-27T16:01:05.959Z,100348.14
2019-04-27T16:06:11.817Z,100355.80
2019-04-27T16:11:16.386Z,100355.80
2019-04-27T16:16:20.267Z,100370.03
2019-04-27T16:21:24.590Z,100370.11
2019-04-27T16:26:28.769Z,100365.47
2019-04-27T16:31:36.059Z,100378.13
2019-04-27T16:36:43.677Z,100368.22
2019-04-27T16:41:50.272Z,100377.27
2019-04-27T16:46:53.318Z,100383.61
2019-04-27T16:51:59.041Z,100384.30
2019-04-27T16:57:05.443Z,100388.48
2019-04-27T17:02:10.157Z,100392.19
2019-04-27T17:07:14.496Z,100392.61
2019-04-27T17:12:23.456Z,100399.13
2019-04-27T17:17:24.481Z,100401.88
2019-04-27T17:22:29.024Z,100406.97
2019-04-27T17:27:33.178Z,100402.25
2019-04-27T17:32:38.986Z,100406.45
2019-04-27T17:37:43.423Z,100408.10
2019-04-27T17:42:48.155Z,100417.94
2019-04-27T17:47:52.856Z,100420.45
2019-04-27T17:52:58.985Z,100427.85
2019-04-27T17:58:05.064Z,100424.41
2019-04-27T18:03:12.665Z,100428.19
2019-04-27T18:08:18.364Z,100431.52
2019-04-27T18:13:25.454Z,100439.22
2019-04-27T18:18:28.096Z,100425.90
2019-04-27T18:23:32.744Z,100437.24
2019-04-27T18:28:38.607Z,100450.58
2019-04-27T18:33:43.380Z,100453.81
2019-04-27T18:38:49.692Z,100463.83
2019-04-27T18:43:55.845Z,100457.71
2019-04-27T18:48:59.957Z,100410.08
2019-04-27T18:54:04.495Z,100450.58
2019-04-27T18:59:08.907Z,100461.95
2019-04-27T19:04:13.223Z,100456.66
2019-04-27T19:09:18.715Z,100465.07
2019-04-27T19:14:22.985Z,100483.08
2019-04-27T19:19:28.025Z,100473.16
2019-04-27T19:24:32.531Z,100478.75
2019-04-27T19:29:38.168Z,100471.63
2019-04-27T19:34:42.540Z,100468.98
2019-04-27T19:39:47.866Z,100490.89
2019-04-27T19:44:52.708Z,100503.97
2019-04-27T19:49:56.876Z,100502.84
2019-04-27T19:55:01.204Z,100492.22
2019-04-27T20:00:09.336Z,100503.49
2019-04-27T20:05:16.485Z,100513.89
2019-04-27T20:10:20.355Z,100507.27
2019-04-27T20:15:24.507Z,100525.34
2019-04-27T20:20:28.843Z,100532.55
2019-04-27T20:25:33.133Z,100539.55
2019-04-27T20:30:37.179Z,100542.36
2019-04-27T20:35:42.627Z,100554.77
2019-04-27T20:40:47.295Z,100556.05
2019-04-27T20:45:51.601Z,100561.22
2019-04-27T20:50:56.210Z,100568.77
2019-04-27T20:56:00.405Z,100564.26
2019-04-27T21:01:04.558Z,100569.02
2019-04-27T21:06:08.664Z,100577.22
2019-04-27T21:11:12.990Z,100568.82
2019-04-27T21:16:17.218Z,100569.99
2019-04-27T21:21:22.391Z,100563.11
2019-04-27T21:26:26.565Z,100578.82
2019-04-27T21:31:31.629Z,100582.79
2019-04-27T21:36:35.872Z,100590.91
2019-04-27T21:41:41.360Z,100593.84
2019-04-27T21:46:45.796Z,100575.84
2019-04-27T21:51:51.027Z,100581.55
2019-04-27T21:56:55.078Z,100588.01
2019-04-27T22:01:59.227Z,100597.73
2019-04-27T22:07:03.390Z,100591.59
2019-04-27T22:12:07.776Z,100588.88
2019-04-27T22:17:11.863Z,100592.39
2019-04-27T22:22:16.944Z,100594.89
2019-04-27T22:27:21.186Z,100594.31
2019-04-27T22:32:25.456Z,100588.88
2019-04-27T22:37:31.135Z,100592.00
2019-04-27T22:42:35.435Z,100587.14
2019-04-27T22:47:40.839Z,100574.69
2019-04-27T22:52:45.119Z,100579.27
2019-04-27T22:57:51.462Z,100573.39
2019-04-27T23:02:55.165Z,100566.35
2019-04-27T23:07:59.356Z,100568.94
2019-04-27T23:13:03.534Z,100572.13
2019-04-27T23:18:07.969Z,100576.88
2019-04-27T23:23:12.316Z,100577.30
2019-04-27T23:28:16.629Z,100580.86
2019-04-27T23:33:21.187Z,100582.58
2019-04-27T23:38:25.385Z,100575.62
2019-04-27T23:43:29.458Z,100583.77
2019-04-27T23:48:33.658Z,100586.56
2019-04-27T23:53:37.897Z,100586.16
2019-04-27T23:58:42.086Z,100567.30
